• Join FlightAware (Why Join?)
  • Login
  • US Flag 
11:09PM EDT


 

Airport Tracker/Info


-or-


 

Live Flight TrackerFlight Track Log ✈ SWA407 ✈ 15-Apr-2013 ✈ KSAN - KLAS

Flight Track Log - Related Links

Times and Time Zones

All times are in EDT time to prevent confusion due to time zone crossing. See the SWA407 flight status page for this flight to view local times or setup timezone preferences in your user account.

Time Position Orientation Groundspeed Altitude Reporting Facility
EDT Latitude Longitude Course Direction KTS MPH feet Rate Location/Type
02:09AM 32.7911 -117.2911 307° West 214 246 8,300  Level Los Angeles Center
02:10AM 32.8417 -117.3758 305° West 257 296 14,100 5,100 Climbing Los Angeles Center
02:11AM 32.9008 -117.4661 308° West 284 327 18,700 3,780 Climbing Los Angeles Center
02:12AM 32.9811 -117.5158 333° Northwest 330 380 21,800 2,700 Climbing Los Angeles Center
02:13AM 33.0889 -117.5411 349° North 380 437 24,300 2,640 Climbing Los Angeles Center
02:14AM 33.2047 -117.5694 348° North 415 478 27,200 2,280 Climbing Los Angeles Center
02:15AM 33.3244 -117.5975 349° North 433 498 29,000 840 Climbing Los Angeles Center
02:16AM 33.4428 -117.6267 348° North 435 501 29,000  Level Los Angeles Center
02:17AM 33.5383 -117.6078 North 444 511 29,000  Level Los Angeles Center
02:18AM 33.6717 -117.5122 31° Northeast 465 535 29,000  Level Los Angeles Center
02:20AM 33.7695 -117.4198 40° Northeast  Level Estimated
02:20AM 33.8936 -117.3542 40° Northeast 468 539 29,000  Level Los Angeles Center
02:21AM 34.0042 -117.2742 31° Northeast 466 536 29,000  Level Los Angeles Center
02:23AM 34.1175 -117.2284 19° North  Level FlightAware Approximate
02:24AM 34.3439 -117.0283 32° Northeast 472 543 29,000  Level Los Angeles Center
02:25AM 34.4558 -116.9475 31° Northeast 472 543 29,000  Level Los Angeles Center
02:26AM 34.5911 -116.8489 31° Northeast 475 547 29,000  Level Los Angeles Center
02:27AM 34.7017 -116.7681 31° Northeast 470 541 29,000  Level Los Angeles Center
02:28AM 34.8119 -116.6875 31° Northeast 465 535 29,000  Level Los Angeles Center
02:29AM 34.9236 -116.6042 31° Northeast 470 541 29,000  Level Los Angeles Center
02:30AM 34.6408 -116.6880 32° Northeast  Level Estimated
02:30AM 35.0294 -116.4953 40° Northeast 491 565 29,000  Level Los Angeles Center
02:31AM 35.1231 -116.3767 46° Northeast 494 568 29,000 -360 Level Los Angeles Center
02:32AM 35.2189 -116.2569 46° Northeast 494 568 28,300 -1,680 Descending Los Angeles Center
02:33AM 35.3158 -116.1333 46° Northeast 499 574 25,700 -2,940 Descending Los Angeles Center
02:34AM 35.4111 -116.0136 46° Northeast 498 573 22,400 -3,180 Descending Los Angeles Center
02:35AM 35.5031 -115.9000 45° Northeast 484 557 19,400 -3,660 Descending Los Angeles Center
02:36AM 35.5544 -115.8328 47° Northeast 464 534 17,100 -2,880 Descending Los Angeles Center
02:36AM 35.5706 -115.8122 46° Northeast 459 528 16,500 -3,120 Descending Los Angeles Center
02:37AM 35.6183 -115.7489 47° Northeast 448 516 14,600 -3,360 Descending Los Angeles Center
02:37AM 35.6731 -115.6842 44° Northeast 444 511 13,100 -1,620 Descending Los Angeles Center
02:38AM 35.7056 -115.6417 47° Northeast 426 490 13,000 -120 Descending Los Angeles Center
02:38AM 35.7639 -115.5783 41° Northeast 392 451 13,000  Level Los Angeles Center
02:39AM 35.7858 -115.5733 10° North 337 388 13,000  Level Los Angeles Center
02:39AM 35.8464 -115.5689 North 296 341 13,000  Level Los Angeles Center
02:40AM 35.8667 -115.5686 North 290 334 13,000 -540 Level Los Angeles Center
02:41AM 35.9292 -115.5650 North 296 341 12,500 -840 Descending Los Angeles Center
02:41AM 35.9506 -115.5572 16° North 294 338 12,200 -1,140 Descending Los Angeles Center
02:42AM 35.9917 -115.4964 50° Northeast 309 356 11,400 -1,200 Descending Los Angeles Center
02:42AM 36.0008 -115.4692 67° East 321 369 11,000 -900 Descending Los Angeles Center
02:43AM 36.0250 -115.3922 69° East 326 375 10,500 -840 Descending Los Angeles Center
02:43AM 36.0294 -115.3617 80° East 329 379 10,200 -1,320 Descending Los Angeles Center
02:44AM 36.0244 -115.2828 94° East 330 380 9,200 -1,320 Descending Los Angeles Center
02:44AM 36.0217 -115.2553 97° East 312 359 8,900 -1,200 Descending Los Angeles Center
02:45AM 36.0178 -115.1819 94° East 305 351 8,000 -900 Descending Los Angeles Center
02:45AM 36.0158 -115.1589 96° East 280 322 8,000  Level Los Angeles Center
02:46AM 36.0122 -115.0994 94° East 256 295 8,000  Level Los Angeles Center
02:46AM 36.0097 -115.0811 100° East 224 258 8,000 -900 Level Los Angeles Center
02:47AM 36.0067 -115.0283 94° East 219 252 7,100 -1,440 Descending Los Angeles Center
02:47AM 36.0061 -115.0053 92° East 214 246 6,600 -1,140 Descending Los Angeles Center
02:48AM 36.0031 -114.9542 94° East 216 249 6,000 -1,020 Descending Los Angeles Center
02:48AM 36.0022 -114.9292 92° East 219 252 5,600 -540 Descending Los Angeles Center
02:49AM 36.0003 -114.8803 93° East 216 249 5,500 -120 Descending Los Angeles Center
02:49AM 36.0169 -114.8686 30° Northeast 216 249 5,500 -240 Level Los Angeles Center
02:50AM 36.0494 -114.8697 358° North 204 235 5,300 -600 Descending Los Angeles Center
02:50AM 36.0539 -114.8881 287° West 154 177 4,900 -420 Descending Los Angeles Center
02:51AM 36.0606 -114.9139 288° West 156 180 4,900  Level Los Angeles Center
02:51AM 36.0681 -114.9339 295° West 148 170 4,900 -240 Level Los Angeles Center
02:52AM 36.0764 -114.9586 293° West 147 169 4,700 -420 Descending Los Angeles Center
02:52AM 36.0744 -114.9719 260° West 121 139 4,500 -600 Descending Los Angeles Center
02:53AM 36.0747 -114.9961 271° West 124 143 4,100 -600 Descending Los Angeles Center
02:53AM 36.0744 -115.0117 269° West 108 124 3,900 -540 Descending Los Angeles Center
02:54AM 36.0736 -115.0317 267° West 112 129 3,600 -540 Descending Los Angeles Center
02:54AM 36.0733 -115.0467 269° West 99 114 3,400 -600 Descending Los Angeles Center
02:55AM 36.0736 -115.0667 271° West 106 122 3,000 -720 Descending Los Angeles Center
02:55AM 36.0731 -115.0842 268° West 105 121 2,700 -720 Descending Los Angeles Center
02:56AM 36.0736 -115.1050 272° West 107 123 2,300 -540 Descending Los Angeles Center
02:58AM 36.0667 -115.1500 270° West  Level FlightAware Approximate